sensor_id;sensor_type;location;lat;lon;timestamp;P1;durP1;ratioP1;P2;durP2;ratioP2
11052;SDS011;55230;42.602;23.470;2022-11-30T00:01:20;33.23;;;21.87;;
11052;SDS011;55230;42.602;23.470;2022-11-30T00:03:48;40.50;;;25.13;;
11052;SDS011;55230;42.602;23.470;2022-11-30T00:06:18;31.33;;;21.27;;
11052;SDS011;55230;42.602;23.470;2022-11-30T00:08:47;32.60;;;22.03;;
11052;SDS011;55230;42.602;23.470;2022-11-30T00:11:15;32.27;;;22.13;;
11052;SDS011;55230;42.602;23.470;2022-11-30T00:13:44;36.53;;;23.57;;
11052;SDS011;55230;42.602;23.470;2022-11-30T00:16:12;38.17;;;24.63;;
11052;SDS011;55230;42.602;23.470;2022-11-30T00:18:40;38.00;;;23.33;;
11052;SDS011;55230;42.602;23.470;2022-11-30T00:21:07;42.17;;;26.23;;
11052;SDS011;55230;42.602;23.470;2022-11-30T00:23:38;31.47;;;20.67;;
11052;SDS011;55230;42.602;23.470;2022-11-30T00:26:06;16.63;;;12.30;;
11052;SDS011;55230;42.602;23.470;2022-11-30T00:28:35;19.57;;;13.90;;
11052;SDS011;55230;42.602;23.470;2022-11-30T00:31:02;24.80;;;18.10;;
11052;SDS011;55230;42.602;23.470;2022-11-30T00:33:31;20.83;;;15.77;;
11052;SDS011;55230;42.602;23.470;2022-11-30T00:36:02;15.60;;;11.53;;
11052;SDS011;55230;42.602;23.470;2022-11-30T00:38:30;16.87;;;13.13;;
11052;SDS011;55230;42.602;23.470;2022-11-30T00:40:58;10.30;;;8.33;;
11052;SDS011;55230;42.602;23.470;2022-11-30T00:43:24;18.43;;;13.20;;
11052;SDS011;55230;42.602;23.470;2022-11-30T00:45:51;10.80;;;9.00;;
11052;SDS011;55230;42.602;23.470;2022-11-30T00:48:18;19.03;;;12.67;;
11052;SDS011;55230;42.602;23.470;2022-11-30T00:50:46;10.57;;;7.70;;
11052;SDS011;55230;42.602;23.470;2022-11-30T00:53:15;10.07;;;7.53;;
11052;SDS011;55230;42.602;23.470;2022-11-30T00:55:43;19.07;;;12.40;;
11052;SDS011;55230;42.602;23.470;2022-11-30T00:58:11;23.43;;;15.07;;
11052;SDS011;55230;42.602;23.470;2022-11-30T01:00:38;22.00;;;14.53;;
11052;SDS011;55230;42.602;23.470;2022-11-30T01:03:05;20.27;;;13.17;;
11052;SDS011;55230;42.602;23.470;2022-11-30T01:05:32;14.20;;;10.63;;
11052;SDS011;55230;42.602;23.470;2022-11-30T01:07:59;14.80;;;11.10;;
11052;SDS011;55230;42.602;23.470;2022-11-30T01:10:28;24.43;;;14.40;;
11052;SDS011;55230;42.602;23.470;2022-11-30T01:12:55;18.40;;;13.03;;
11052;SDS011;55230;42.602;23.470;2022-11-30T01:15:22;23.47;;;14.43;;
11052;SDS011;55230;42.602;23.470;2022-11-30T01:17:49;27.60;;;16.93;;
11052;SDS011;55230;42.602;23.470;2022-11-30T01:20:16;39.87;;;14.77;;
11052;SDS011;55230;42.602;23.470;2022-11-30T01:22:43;37.97;;;15.60;;
11052;SDS011;55230;42.602;23.470;2022-11-30T01:25:10;26.27;;;15.40;;
11052;SDS011;55230;42.602;23.470;2022-11-30T01:27:38;35.23;;;20.63;;
11052;SDS011;55230;42.602;23.470;2022-11-30T01:30:05;37.97;;;20.07;;
11052;SDS011;55230;42.602;23.470;2022-11-30T01:32:33;36.93;;;19.67;;
11052;SDS011;55230;42.602;23.470;2022-11-30T01:34:59;28.50;;;16.57;;
11052;SDS011;55230;42.602;23.470;2022-11-30T01:37:27;31.57;;;16.40;;
11052;SDS011;55230;42.602;23.470;2022-11-30T01:39:54;33.83;;;18.70;;
11052;SDS011;55230;42.602;23.470;2022-11-30T01:42:20;57.80;;;18.13;;
11052;SDS011;55230;42.602;23.470;2022-11-30T01:44:52;30.90;;;15.17;;
11052;SDS011;55230;42.602;23.470;2022-11-30T01:47:23;39.37;;;13.40;;
11052;SDS011;55230;42.602;23.470;2022-11-30T01:49:54;44.40;;;12.60;;
11052;SDS011;55230;42.602;23.470;2022-11-30T01:52:28;112.27;;;15.73;;
11052;SDS011;55230;42.602;23.470;2022-11-30T01:54:58;73.93;;;12.97;;
11052;SDS011;55230;42.602;23.470;2022-11-30T01:57:33;106.63;;;14.63;;
11052;SDS011;55230;42.602;23.470;2022-11-30T02:00:05;44.40;;;10.30;;
11052;SDS011;55230;42.602;23.470;2022-11-30T02:02:36;31.63;;;13.07;;
11052;SDS011;55230;42.602;23.470;2022-11-30T02:05:08;17.03;;;11.27;;
11052;SDS011;55230;42.602;23.470;2022-11-30T02:07:36;24.60;;;13.27;;
11052;SDS011;55230;42.602;23.470;2022-11-30T02:10:04;17.90;;;11.77;;
11052;SDS011;55230;42.602;23.470;2022-11-30T02:12:33;24.93;;;12.30;;
11052;SDS011;55230;42.602;23.470;2022-11-30T02:15:07;24.00;;;10.93;;
11052;SDS011;55230;42.602;23.470;2022-11-30T02:17:40;18.57;;;10.30;;
11052;SDS011;55230;42.602;23.470;2022-11-30T02:20:24;14.17;;;10.33;;
11052;SDS011;55230;42.602;23.470;2022-11-30T02:23:09;11.63;;;7.97;;
11052;SDS011;55230;42.602;23.470;2022-11-30T02:25:51;10.57;;;8.00;;
11052;SDS011;55230;42.602;23.470;2022-11-30T02:28:39;10.20;;;7.40;;
11052;SDS011;55230;42.602;23.470;2022-11-30T02:31:20;11.83;;;8.37;;
11052;SDS011;55230;42.602;23.470;2022-11-30T02:33:51;162.20;;;50.17;;
11052;SDS011;55230;42.602;23.470;2022-11-30T02:36:20;123.53;;;23.80;;
11052;SDS011;55230;42.602;23.470;2022-11-30T02:38:49;374.77;;;162.23;;
11052;SDS011;55230;42.602;23.470;2022-11-30T02:41:17;215.97;;;94.07;;
11052;SDS011;55230;42.602;23.470;2022-11-30T02:43:45;36.57;;;18.63;;
11052;SDS011;55230;42.602;23.470;2022-11-30T02:46:13;85.43;;;35.70;;
11052;SDS011;55230;42.602;23.470;2022-11-30T02:48:46;40.83;;;22.40;;
11052;SDS011;55230;42.602;23.470;2022-11-30T02:51:19;23.23;;;14.17;;
11052;SDS011;55230;42.602;23.470;2022-11-30T02:53:49;20.07;;;12.50;;
11052;SDS011;55230;42.602;23.470;2022-11-30T02:56:17;18.30;;;12.00;;
11052;SDS011;55230;42.602;23.470;2022-11-30T02:58:47;18.77;;;12.03;;
11052;SDS011;55230;42.602;23.470;2022-11-30T03:01:14;20.87;;;13.00;;
11052;SDS011;55230;42.602;23.470;2022-11-30T03:03:41;41.70;;;23.70;;
11052;SDS011;55230;42.602;23.470;2022-11-30T03:06:09;28.70;;;19.33;;
11052;SDS011;55230;42.602;23.470;2022-11-30T03:08:35;27.27;;;18.03;;
11052;SDS011;55230;42.602;23.470;2022-11-30T03:11:03;25.13;;;17.10;;
11052;SDS011;55230;42.602;23.470;2022-11-30T03:13:30;22.17;;;14.67;;
11052;SDS011;55230;42.602;23.470;2022-11-30T03:16:03;26.17;;;16.00;;
11052;SDS011;55230;42.602;23.470;2022-11-30T03:18:31;32.10;;;20.10;;
11052;SDS011;55230;42.602;23.470;2022-11-30T03:20:58;56.20;;;32.13;;
11052;SDS011;55230;42.602;23.470;2022-11-30T03:23:25;43.30;;;26.87;;
11052;SDS011;55230;42.602;23.470;2022-11-30T03:25:56;43.87;;;27.60;;
11052;SDS011;55230;42.602;23.470;2022-11-30T03:28:23;42.97;;;25.83;;
11052;SDS011;55230;42.602;23.470;2022-11-30T03:30:51;43.17;;;26.23;;
11052;SDS011;55230;42.602;23.470;2022-11-30T03:33:19;33.43;;;20.63;;
11052;SDS011;55230;42.602;23.470;2022-11-30T03:35:46;34.60;;;22.00;;
11052;SDS011;55230;42.602;23.470;2022-11-30T03:38:13;30.17;;;19.37;;
11052;SDS011;55230;42.602;23.470;2022-11-30T03:40:39;35.27;;;21.17;;
11052;SDS011;55230;42.602;23.470;2022-11-30T03:43:06;35.10;;;21.37;;
11052;SDS011;55230;42.602;23.470;2022-11-30T03:45:33;45.27;;;29.47;;
11052;SDS011;55230;42.602;23.470;2022-11-30T03:48:00;54.60;;;34.20;;
11052;SDS011;55230;42.602;23.470;2022-11-30T03:50:28;73.43;;;31.17;;
11052;SDS011;55230;42.602;23.470;2022-11-30T03:52:54;228.23;;;32.90;;
11052;SDS011;55230;42.602;23.470;2022-11-30T03:55:21;278.63;;;30.23;;
11052;SDS011;55230;42.602;23.470;2022-11-30T03:57:48;339.03;;;99.53;;
11052;SDS011;55230;42.602;23.470;2022-11-30T04:00:15;89.27;;;35.27;;
11052;SDS011;55230;42.602;23.470;2022-11-30T04:02:42;197.17;;;66.93;;
11052;SDS011;55230;42.602;23.470;2022-11-30T04:05:09;195.37;;;78.97;;
11052;SDS011;55230;42.602;23.470;2022-11-30T04:07:37;219.87;;;84.43;;
11052;SDS011;55230;42.602;23.470;2022-11-30T04:10:05;28.97;;;15.33;;
11052;SDS011;55230;42.602;23.470;2022-11-30T04:12:32;128.00;;;48.43;;
11052;SDS011;55230;42.602;23.470;2022-11-30T04:14:59;60.40;;;27.03;;
11052;SDS011;55230;42.602;23.470;2022-11-30T04:17:28;149.30;;;60.83;;
11052;SDS011;55230;42.602;23.470;2022-11-30T04:19:55;217.30;;;91.50;;
11052;SDS011;55230;42.602;23.470;2022-11-30T04:22:22;225.03;;;101.07;;
11052;SDS011;55230;42.602;23.470;2022-11-30T04:24:50;132.27;;;58.43;;
11052;SDS011;55230;42.602;23.470;2022-11-30T04:27:17;147.73;;;68.93;;
11052;SDS011;55230;42.602;23.470;2022-11-30T04:29:44;67.30;;;27.50;;
11052;SDS011;55230;42.602;23.470;2022-11-30T04:32:10;56.57;;;20.67;;
11052;SDS011;55230;42.602;23.470;2022-11-30T04:34:37;183.93;;;49.83;;
11052;SDS011;55230;42.602;23.470;2022-11-30T04:37:04;225.77;;;84.63;;
11052;SDS011;55230;42.602;23.470;2022-11-30T04:39:31;54.33;;;26.37;;
11052;SDS011;55230;42.602;23.470;2022-11-30T04:41:59;45.97;;;29.63;;
11052;SDS011;55230;42.602;23.470;2022-11-30T04:44:26;44.93;;;29.40;;
11052;SDS011;55230;42.602;23.470;2022-11-30T04:46:53;32.23;;;21.53;;
11052;SDS011;55230;42.602;23.470;2022-11-30T04:49:20;21.73;;;14.57;;
11052;SDS011;55230;42.602;23.470;2022-11-30T04:51:46;20.57;;;13.87;;
11052;SDS011;55230;42.602;23.470;2022-11-30T04:54:13;16.53;;;11.23;;
11052;SDS011;55230;42.602;23.470;2022-11-30T04:56:40;17.73;;;11.27;;
11052;SDS011;55230;42.602;23.470;2022-11-30T04:59:08;23.00;;;15.90;;
11052;SDS011;55230;42.602;23.470;2022-11-30T05:01:35;26.57;;;20.87;;
11052;SDS011;55230;42.602;23.470;2022-11-30T05:04:01;17.30;;;12.17;;
11052;SDS011;55230;42.602;23.470;2022-11-30T05:06:28;21.50;;;11.93;;
11052;SDS011;55230;42.602;23.470;2022-11-30T05:08:55;13.40;;;9.10;;
11052;SDS011;55230;42.602;23.470;2022-11-30T05:11:22;28.87;;;14.70;;
11052;SDS011;55230;42.602;23.470;2022-11-30T05:13:48;46.13;;;21.23;;
11052;SDS011;55230;42.602;23.470;2022-11-30T05:16:17;55.73;;;27.60;;
11052;SDS011;55230;42.602;23.470;2022-11-30T05:18:43;39.07;;;16.83;;
11052;SDS011;55230;42.602;23.470;2022-11-30T05:21:10;19.67;;;10.07;;
11052;SDS011;55230;42.602;23.470;2022-11-30T05:23:37;20.93;;;11.37;;
11052;SDS011;55230;42.602;23.470;2022-11-30T05:26:03;30.80;;;14.50;;
11052;SDS011;55230;42.602;23.470;2022-11-30T05:28:30;38.87;;;20.13;;
11052;SDS011;55230;42.602;23.470;2022-11-30T05:31:01;36.83;;;18.17;;
11052;SDS011;55230;42.602;23.470;2022-11-30T05:33:29;29.53;;;17.50;;
11052;SDS011;55230;42.602;23.470;2022-11-30T05:35:57;20.87;;;13.83;;
11052;SDS011;55230;42.602;23.470;2022-11-30T05:38:23;44.07;;;29.67;;
11052;SDS011;55230;42.602;23.470;2022-11-30T05:40:50;14.63;;;10.47;;
11052;SDS011;55230;42.602;23.470;2022-11-30T05:43:17;21.93;;;10.60;;
11052;SDS011;55230;42.602;23.470;2022-11-30T05:45:44;29.73;;;13.40;;
11052;SDS011;55230;42.602;23.470;2022-11-30T05:48:10;37.27;;;17.47;;
11052;SDS011;55230;42.602;23.470;2022-11-30T05:50:38;36.20;;;15.90;;
11052;SDS011;55230;42.602;23.470;2022-11-30T05:53:05;15.70;;;8.97;;
11052;SDS011;55230;42.602;23.470;2022-11-30T05:55:32;11.90;;;7.97;;
11052;SDS011;55230;42.602;23.470;2022-11-30T05:57:59;11.97;;;8.60;;
11052;SDS011;55230;42.602;23.470;2022-11-30T06:00:26;24.40;;;14.80;;
11052;SDS011;55230;42.602;23.470;2022-11-30T06:02:54;18.73;;;11.60;;
11052;SDS011;55230;42.602;23.470;2022-11-30T06:05:21;14.90;;;9.87;;
11052;SDS011;55230;42.602;23.470;2022-11-30T06:07:49;17.37;;;11.10;;
11052;SDS011;55230;42.602;23.470;2022-11-30T06:10:16;18.17;;;10.63;;
11052;SDS011;55230;42.602;23.470;2022-11-30T06:12:43;23.93;;;16.20;;
11052;SDS011;55230;42.602;23.470;2022-11-30T06:15:10;26.17;;;18.40;;
11052;SDS011;55230;42.602;23.470;2022-11-30T06:17:37;29.30;;;20.33;;
11052;SDS011;55230;42.602;23.470;2022-11-30T06:20:04;23.40;;;15.53;;
11052;SDS011;55230;42.602;23.470;2022-11-30T06:22:32;23.53;;;12.40;;
11052;SDS011;55230;42.602;23.470;2022-11-30T06:25:00;27.23;;;14.07;;
11052;SDS011;55230;42.602;23.470;2022-11-30T06:27:28;67.53;;;16.77;;
11052;SDS011;55230;42.602;23.470;2022-11-30T06:29:56;68.43;;;17.90;;
11052;SDS011;55230;42.602;23.470;2022-11-30T06:32:22;38.37;;;23.13;;
11052;SDS011;55230;42.602;23.470;2022-11-30T06:34:49;103.63;;;30.90;;
11052;SDS011;55230;42.602;23.470;2022-11-30T06:37:16;44.83;;;28.57;;
11052;SDS011;55230;42.602;23.470;2022-11-30T06:39:43;23.27;;;15.30;;
11052;SDS011;55230;42.602;23.470;2022-11-30T06:42:11;15.60;;;11.40;;
11052;SDS011;55230;42.602;23.470;2022-11-30T06:44:37;14.53;;;10.00;;
11052;SDS011;55230;42.602;23.470;2022-11-30T06:47:04;29.70;;;12.37;;
11052;SDS011;55230;42.602;23.470;2022-11-30T06:49:31;18.17;;;12.67;;
11052;SDS011;55230;42.602;23.470;2022-11-30T06:51:58;21.70;;;14.67;;
11052;SDS011;55230;42.602;23.470;2022-11-30T06:54:25;12.53;;;9.90;;
11052;SDS011;55230;42.602;23.470;2022-11-30T06:56:52;14.03;;;10.67;;
11052;SDS011;55230;42.602;23.470;2022-11-30T06:59:22;10.73;;;8.60;;
11052;SDS011;55230;42.602;23.470;2022-11-30T07:01:49;15.33;;;12.13;;
11052;SDS011;55230;42.602;23.470;2022-11-30T07:04:16;19.90;;;14.37;;
11052;SDS011;55230;42.602;23.470;2022-11-30T07:06:42;16.73;;;12.67;;
11052;SDS011;55230;42.602;23.470;2022-11-30T07:09:09;10.17;;;8.83;;
11052;SDS011;55230;42.602;23.470;2022-11-30T07:11:37;10.50;;;8.17;;
11052;SDS011;55230;42.602;23.470;2022-11-30T07:14:04;8.13;;;6.57;;
11052;SDS011;55230;42.602;23.470;2022-11-30T07:16:32;11.73;;;8.70;;
11052;SDS011;55230;42.602;23.470;2022-11-30T07:18:59;19.23;;;14.30;;
11052;SDS011;55230;42.602;23.470;2022-11-30T07:21:25;11.43;;;9.00;;
11052;SDS011;55230;42.602;23.470;2022-11-30T07:23:52;14.70;;;10.63;;
11052;SDS011;55230;42.602;23.470;2022-11-30T07:26:35;14.50;;;8.90;;
11052;SDS011;55230;42.602;23.470;2022-11-30T07:29:02;15.00;;;10.90;;
11052;SDS011;55230;42.602;23.470;2022-11-30T07:31:29;14.03;;;10.37;;
11052;SDS011;55230;42.602;23.470;2022-11-30T07:34:02;14.67;;;10.90;;
11052;SDS011;55230;42.602;23.470;2022-11-30T07:36:31;12.60;;;10.30;;
11052;SDS011;55230;42.602;23.470;2022-11-30T07:38:58;11.97;;;9.60;;
11052;SDS011;55230;42.602;23.470;2022-11-30T07:41:24;12.93;;;10.30;;
11052;SDS011;55230;42.602;23.470;2022-11-30T07:43:51;15.60;;;10.53;;
11052;SDS011;55230;42.602;23.470;2022-11-30T07:46:18;13.67;;;9.33;;
11052;SDS011;55230;42.602;23.470;2022-11-30T07:48:46;12.53;;;8.90;;
11052;SDS011;55230;42.602;23.470;2022-11-30T07:51:14;25.03;;;19.70;;
11052;SDS011;55230;42.602;23.470;2022-11-30T07:53:42;19.97;;;15.67;;
11052;SDS011;55230;42.602;23.470;2022-11-30T07:56:10;20.33;;;16.03;;
11052;SDS011;55230;42.602;23.470;2022-11-30T07:58:38;15.47;;;12.43;;
11052;SDS011;55230;42.602;23.470;2022-11-30T08:01:06;10.10;;;8.03;;
11052;SDS011;55230;42.602;23.470;2022-11-30T08:03:35;6.97;;;5.67;;
11052;SDS011;55230;42.602;23.470;2022-11-30T08:06:04;9.77;;;6.80;;
11052;SDS011;55230;42.602;23.470;2022-11-30T08:08:33;13.07;;;7.30;;
11052;SDS011;55230;42.602;23.470;2022-11-30T08:11:02;11.83;;;7.60;;
11052;SDS011;55230;42.602;23.470;2022-11-30T08:13:30;13.27;;;8.67;;
11052;SDS011;55230;42.602;23.470;2022-11-30T08:15:59;16.77;;;13.03;;
11052;SDS011;55230;42.602;23.470;2022-11-30T08:18:26;12.70;;;10.43;;
11052;SDS011;55230;42.602;23.470;2022-11-30T08:20:56;13.27;;;10.80;;
11052;SDS011;55230;42.602;23.470;2022-11-30T08:23:25;20.20;;;12.90;;
11052;SDS011;55230;42.602;23.470;2022-11-30T08:25:53;24.13;;;17.70;;
11052;SDS011;55230;42.602;23.470;2022-11-30T08:28:20;20.03;;;14.03;;
11052;SDS011;55230;42.602;23.470;2022-11-30T08:30:47;23.00;;;15.30;;
11052;SDS011;55230;42.602;23.470;2022-11-30T08:33:13;15.90;;;11.90;;
11052;SDS011;55230;42.602;23.470;2022-11-30T08:35:40;15.37;;;11.67;;
11052;SDS011;55230;42.602;23.470;2022-11-30T08:38:07;17.40;;;12.10;;
11052;SDS011;55230;42.602;23.470;2022-11-30T08:40:35;14.17;;;10.90;;
11052;SDS011;55230;42.602;23.470;2022-11-30T08:43:02;15.73;;;11.80;;
11052;SDS011;55230;42.602;23.470;2022-11-30T08:45:28;14.63;;;11.33;;
11052;SDS011;55230;42.602;23.470;2022-11-30T08:47:58;11.60;;;9.50;;
11052;SDS011;55230;42.602;23.470;2022-11-30T08:50:24;10.43;;;8.47;;
11052;SDS011;55230;42.602;23.470;2022-11-30T08:52:52;61.70;;;33.70;;
11052;SDS011;55230;42.602;23.470;2022-11-30T08:55:19;14.43;;;10.33;;
11052;SDS011;55230;42.602;23.470;2022-11-30T08:57:47;22.60;;;14.97;;
11052;SDS011;55230;42.602;23.470;2022-11-30T09:00:14;39.43;;;20.67;;
11052;SDS011;55230;42.602;23.470;2022-11-30T09:02:43;13.00;;;9.70;;
11052;SDS011;55230;42.602;23.470;2022-11-30T09:05:11;60.90;;;26.83;;
11052;SDS011;55230;42.602;23.470;2022-11-30T09:07:38;45.77;;;20.87;;
11052;SDS011;55230;42.602;23.470;2022-11-30T09:10:05;22.30;;;12.00;;
11052;SDS011;55230;42.602;23.470;2022-11-30T09:12:33;15.83;;;10.43;;
11052;SDS011;55230;42.602;23.470;2022-11-30T09:15:01;13.83;;;9.37;;
11052;SDS011;55230;42.602;23.470;2022-11-30T09:17:29;33.93;;;18.37;;
11052;SDS011;55230;42.602;23.470;2022-11-30T09:19:55;24.03;;;15.10;;
11052;SDS011;55230;42.602;23.470;2022-11-30T09:22:22;12.27;;;10.13;;
11052;SDS011;55230;42.602;23.470;2022-11-30T09:24:49;12.80;;;10.17;;
11052;SDS011;55230;42.602;23.470;2022-11-30T09:27:16;11.00;;;9.77;;
11052;SDS011;55230;42.602;23.470;2022-11-30T09:29:42;11.97;;;10.40;;
11052;SDS011;55230;42.602;23.470;2022-11-30T09:32:10;23.30;;;17.20;;
11052;SDS011;55230;42.602;23.470;2022-11-30T09:34:37;20.30;;;15.33;;
11052;SDS011;55230;42.602;23.470;2022-11-30T09:37:04;20.73;;;15.87;;
11052;SDS011;55230;42.602;23.470;2022-11-30T09:39:31;10.80;;;9.63;;
11052;SDS011;55230;42.602;23.470;2022-11-30T09:42:05;12.60;;;8.63;;
11052;SDS011;55230;42.602;23.470;2022-11-30T09:45:04;14.53;;;10.20;;
11052;SDS011;55230;42.602;23.470;2022-11-30T09:47:46;15.67;;;12.17;;
11052;SDS011;55230;42.602;23.470;2022-11-30T09:50:28;18.13;;;12.77;;
11052;SDS011;55230;42.602;23.470;2022-11-30T09:52:57;12.83;;;8.03;;
11052;SDS011;55230;42.602;23.470;2022-11-30T09:55:29;10.37;;;7.47;;
11052;SDS011;55230;42.602;23.470;2022-11-30T09:57:59;12.43;;;8.23;;
11052;SDS011;55230;42.602;23.470;2022-11-30T10:00:28;17.63;;;13.13;;
11052;SDS011;55230;42.602;23.470;2022-11-30T10:02:57;13.77;;;9.30;;
11052;SDS011;55230;42.602;23.470;2022-11-30T10:05:33;12.53;;;9.77;;
11052;SDS011;55230;42.602;23.470;2022-11-30T10:08:15;12.20;;;8.93;;
11052;SDS011;55230;42.602;23.470;2022-11-30T10:10:53;9.30;;;7.07;;
11052;SDS011;55230;42.602;23.470;2022-11-30T10:13:38;19.47;;;12.63;;
11052;SDS011;55230;42.602;23.470;2022-11-30T10:16:19;15.83;;;10.33;;
11052;SDS011;55230;42.602;23.470;2022-11-30T10:18:55;12.97;;;9.80;;
11052;SDS011;55230;42.602;23.470;2022-11-30T10:21:36;7.73;;;6.80;;
11052;SDS011;55230;42.602;23.470;2022-11-30T10:24:15;13.10;;;10.97;;
11052;SDS011;55230;42.602;23.470;2022-11-30T10:26:54;13.47;;;9.97;;
11052;SDS011;55230;42.602;23.470;2022-11-30T10:29:25;10.77;;;8.60;;
11052;SDS011;55230;42.602;23.470;2022-11-30T10:31:57;11.73;;;9.63;;
11052;SDS011;55230;42.602;23.470;2022-11-30T10:34:30;10.87;;;7.97;;
11052;SDS011;55230;42.602;23.470;2022-11-30T10:37:00;13.17;;;7.77;;
11052;SDS011;55230;42.602;23.470;2022-11-30T10:39:30;9.80;;;7.20;;
11052;SDS011;55230;42.602;23.470;2022-11-30T10:42:03;10.23;;;7.23;;
11052;SDS011;55230;42.602;23.470;2022-11-30T10:44:34;9.67;;;6.73;;
11052;SDS011;55230;42.602;23.470;2022-11-30T10:47:06;7.03;;;5.00;;
11052;SDS011;55230;42.602;23.470;2022-11-30T10:49:43;6.20;;;5.07;;
11052;SDS011;55230;42.602;23.470;2022-11-30T10:52:14;8.53;;;6.90;;
11052;SDS011;55230;42.602;23.470;2022-11-30T10:54:43;8.40;;;6.97;;
11052;SDS011;55230;42.602;23.470;2022-11-30T10:57:10;11.37;;;9.27;;
11052;SDS011;55230;42.602;23.470;2022-11-30T10:59:40;9.47;;;7.53;;
11052;SDS011;55230;42.602;23.470;2022-11-30T11:05:13;9.10;;;6.60;;
11052;SDS011;55230;42.602;23.470;2022-11-30T11:07:44;11.57;;;7.50;;
11052;SDS011;55230;42.602;23.470;2022-11-30T11:10:15;16.37;;;11.77;;
11052;SDS011;55230;42.602;23.470;2022-11-30T11:12:47;8.77;;;6.70;;
11052;SDS011;55230;42.602;23.470;2022-11-30T11:15:17;9.70;;;7.23;;
11052;SDS011;55230;42.602;23.470;2022-11-30T11:17:47;13.50;;;9.90;;
11052;SDS011;55230;42.602;23.470;2022-11-30T11:20:29;14.83;;;11.00;;
11052;SDS011;55230;42.602;23.470;2022-11-30T11:22:57;14.10;;;10.70;;
11052;SDS011;55230;42.602;23.470;2022-11-30T11:25:26;14.67;;;10.53;;
11052;SDS011;55230;42.602;23.470;2022-11-30T11:27:59;13.50;;;10.20;;
11052;SDS011;55230;42.602;23.470;2022-11-30T11:30:33;11.63;;;8.97;;
11052;SDS011;55230;42.602;23.470;2022-11-30T11:33:01;11.77;;;8.97;;
11052;SDS011;55230;42.602;23.470;2022-11-30T11:35:44;15.53;;;9.40;;
11052;SDS011;55230;42.602;23.470;2022-11-30T11:38:17;11.07;;;7.43;;
11052;SDS011;55230;42.602;23.470;2022-11-30T11:40:51;9.57;;;7.07;;
11052;SDS011;55230;42.602;23.470;2022-11-30T11:43:21;14.17;;;9.30;;
11052;SDS011;55230;42.602;23.470;2022-11-30T11:45:50;13.37;;;10.00;;
11052;SDS011;55230;42.602;23.470;2022-11-30T11:48:25;17.97;;;12.33;;
11052;SDS011;55230;42.602;23.470;2022-11-30T11:50:59;10.33;;;7.60;;
11052;SDS011;55230;42.602;23.470;2022-11-30T11:53:38;12.53;;;9.43;;
11052;SDS011;55230;42.602;23.470;2022-11-30T11:56:11;11.13;;;8.30;;
11052;SDS011;55230;42.602;23.470;2022-11-30T11:58:43;13.73;;;9.20;;
11052;SDS011;55230;42.602;23.470;2022-11-30T12:01:15;17.80;;;9.97;;
11052;SDS011;55230;42.602;23.470;2022-11-30T12:03:53;20.33;;;13.60;;
11052;SDS011;55230;42.602;23.470;2022-11-30T12:06:27;19.57;;;12.37;;
11052;SDS011;55230;42.602;23.470;2022-11-30T12:08:56;28.27;;;16.30;;
11052;SDS011;55230;42.602;23.470;2022-11-30T12:11:30;9.37;;;7.13;;
11052;SDS011;55230;42.602;23.470;2022-11-30T12:14:07;8.73;;;6.63;;
11052;SDS011;55230;42.602;23.470;2022-11-30T12:16:38;9.43;;;7.57;;
11052;SDS011;55230;42.602;23.470;2022-11-30T12:19:19;12.00;;;7.53;;
11052;SDS011;55230;42.602;23.470;2022-11-30T12:21:53;11.40;;;8.50;;
11052;SDS011;55230;42.602;23.470;2022-11-30T12:27:35;14.17;;;9.77;;
11052;SDS011;55230;42.602;23.470;2022-11-30T12:30:10;11.80;;;8.37;;
11052;SDS011;55230;42.602;23.470;2022-11-30T12:35:37;17.13;;;9.83;;
11052;SDS011;55230;42.602;23.470;2022-11-30T12:38:13;8.53;;;6.30;;
11052;SDS011;55230;42.602;23.470;2022-11-30T12:40:50;16.80;;;11.00;;
11052;SDS011;55230;42.602;23.470;2022-11-30T12:43:28;8.77;;;6.87;;
11052;SDS011;55230;42.602;23.470;2022-11-30T12:46:06;6.30;;;5.10;;
11052;SDS011;55230;42.602;23.470;2022-11-30T12:48:41;8.97;;;7.13;;
11052;SDS011;55230;42.602;23.470;2022-11-30T12:51:19;17.03;;;13.00;;
11052;SDS011;55230;42.602;23.470;2022-11-30T12:53:53;15.13;;;10.70;;
11052;SDS011;55230;42.602;23.470;2022-11-30T12:56:26;12.67;;;9.47;;
11052;SDS011;55230;42.602;23.470;2022-11-30T12:59:03;13.80;;;10.30;;
11052;SDS011;55230;42.602;23.470;2022-11-30T13:01:53;20.93;;;13.70;;
11052;SDS011;55230;42.602;23.470;2022-11-30T13:04:32;11.97;;;8.10;;
11052;SDS011;55230;42.602;23.470;2022-11-30T13:07:05;12.43;;;9.73;;
11052;SDS011;55230;42.602;23.470;2022-11-30T13:09:37;11.67;;;8.87;;
11052;SDS011;55230;42.602;23.470;2022-11-30T13:12:11;23.23;;;15.20;;
11052;SDS011;55230;42.602;23.470;2022-11-30T13:14:42;11.90;;;8.20;;
11052;SDS011;55230;42.602;23.470;2022-11-30T13:17:12;14.47;;;9.23;;
11052;SDS011;55230;42.602;23.470;2022-11-30T13:19:44;11.73;;;7.90;;
11052;SDS011;55230;42.602;23.470;2022-11-30T13:22:22;16.37;;;11.20;;
11052;SDS011;55230;42.602;23.470;2022-11-30T13:25:01;25.03;;;15.53;;
11052;SDS011;55230;42.602;23.470;2022-11-30T13:27:43;38.43;;;21.43;;
11052;SDS011;55230;42.602;23.470;2022-11-30T13:30:17;20.10;;;13.23;;
11052;SDS011;55230;42.602;23.470;2022-11-30T13:32:49;15.57;;;9.10;;
11052;SDS011;55230;42.602;23.470;2022-11-30T13:38:17;15.10;;;10.90;;
11052;SDS011;55230;42.602;23.470;2022-11-30T13:40:54;15.20;;;10.63;;
11052;SDS011;55230;42.602;23.470;2022-11-30T13:43:23;20.93;;;13.83;;
11052;SDS011;55230;42.602;23.470;2022-11-30T13:46:00;20.13;;;14.17;;
11052;SDS011;55230;42.602;23.470;2022-11-30T13:48:30;12.97;;;8.60;;
11052;SDS011;55230;42.602;23.470;2022-11-30T13:50:59;13.63;;;9.30;;
11052;SDS011;55230;42.602;23.470;2022-11-30T13:53:26;20.90;;;13.60;;
11052;SDS011;55230;42.602;23.470;2022-11-30T13:56:03;27.17;;;17.20;;
11052;SDS011;55230;42.602;23.470;2022-11-30T13:58:31;21.37;;;12.60;;
11052;SDS011;55230;42.602;23.470;2022-11-30T14:01:04;20.27;;;12.07;;
11052;SDS011;55230;42.602;23.470;2022-11-30T14:06:48;16.50;;;10.97;;
11052;SDS011;55230;42.602;23.470;2022-11-30T14:09:16;34.73;;;19.53;;
11052;SDS011;55230;42.602;23.470;2022-11-30T14:12:46;13.83;;;9.30;;
11052;SDS011;55230;42.602;23.470;2022-11-30T14:18:23;17.73;;;10.50;;
11052;SDS011;55230;42.602;23.470;2022-11-30T14:20:58;13.90;;;8.70;;
11052;SDS011;55230;42.602;23.470;2022-11-30T14:23:28;13.80;;;9.30;;
11052;SDS011;55230;42.602;23.470;2022-11-30T14:25:58;13.37;;;9.10;;
11052;SDS011;55230;42.602;23.470;2022-11-30T14:28:32;11.87;;;8.40;;
11052;SDS011;55230;42.602;23.470;2022-11-30T14:31:05;11.07;;;8.13;;
11052;SDS011;55230;42.602;23.470;2022-11-30T14:33:38;9.57;;;6.73;;
11052;SDS011;55230;42.602;23.470;2022-11-30T14:36:08;13.03;;;8.90;;
11052;SDS011;55230;42.602;23.470;2022-11-30T14:38:37;14.27;;;9.30;;
11052;SDS011;55230;42.602;23.470;2022-11-30T14:41:05;14.27;;;10.40;;
11052;SDS011;55230;42.602;23.470;2022-11-30T14:43:57;8.43;;;6.83;;
11052;SDS011;55230;42.602;23.470;2022-11-30T14:46:28;13.47;;;9.20;;
11052;SDS011;55230;42.602;23.470;2022-11-30T14:49:11;13.03;;;9.00;;